sensor_id;sensor_type;location;lat;lon;timestamp;pressure;altitude;pressure_sealevel;temperature;humidity
19596;BME280;9945;46.010;8.946;2023-04-05T00:02:14;97299.75;;;10.32;42.50
19596;BME280;9945;46.010;8.946;2023-04-05T00:04:44;97306.09;;;10.30;41.80
19596;BME280;9945;46.010;8.946;2023-04-05T00:07:16;97300.59;;;10.13;42.00
19596;BME280;9945;46.010;8.946;2023-04-05T00:09:43;97310.09;;;10.24;42.91
19596;BME280;9945;46.010;8.946;2023-04-05T00:12:12;97304.50;;;10.19;42.47
19596;BME280;9945;46.010;8.946;2023-04-05T00:14:38;97302.56;;;10.11;42.84
19596;BME280;9945;46.010;8.946;2023-04-05T00:17:05;97307.94;;;10.19;42.43
19596;BME280;9945;46.010;8.946;2023-04-05T00:19:32;97306.16;;;10.20;42.87
19596;BME280;9945;46.010;8.946;2023-04-05T00:22:02;97305.31;;;10.19;42.80
19596;BME280;9945;46.010;8.946;2023-04-05T00:24:29;97300.31;;;10.16;42.97
19596;BME280;9945;46.010;8.946;2023-04-05T00:26:58;97313.16;;;10.19;42.19
19596;BME280;9945;46.010;8.946;2023-04-05T00:29:26;97301.06;;;10.18;43.31
19596;BME280;9945;46.010;8.946;2023-04-05T00:31:53;97305.44;;;10.08;44.39
19596;BME280;9945;46.010;8.946;2023-04-05T00:34:20;97311.66;;;10.07;45.34
19596;BME280;9945;46.010;8.946;2023-04-05T00:36:47;97306.84;;;10.03;45.55
19596;BME280;9945;46.010;8.946;2023-04-05T00:39:15;97307.94;;;10.00;43.92
19596;BME280;9945;46.010;8.946;2023-04-05T00:41:42;97310.56;;;10.00;44.21
19596;BME280;9945;46.010;8.946;2023-04-05T00:44:09;97316.09;;;9.87;45.10
19596;BME280;9945;46.010;8.946;2023-04-05T00:46:38;97316.25;;;9.86;43.88
19596;BME280;9945;46.010;8.946;2023-04-05T00:49:05;97306.91;;;9.83;45.81
19596;BME280;9945;46.010;8.946;2023-04-05T00:51:32;97314.88;;;9.82;44.81
19596;BME280;9945;46.010;8.946;2023-04-05T00:54:00;97309.38;;;9.85;45.06
19596;BME280;9945;46.010;8.946;2023-04-05T00:56:29;97310.63;;;9.71;44.29
19596;BME280;9945;46.010;8.946;2023-04-05T00:58:56;97312.56;;;9.69;44.01
19596;BME280;9945;46.010;8.946;2023-04-05T01:01:25;97314.19;;;9.70;45.17
19596;BME280;9945;46.010;8.946;2023-04-05T01:03:54;97303.59;;;9.81;42.44
19596;BME280;9945;46.010;8.946;2023-04-05T01:06:35;97309.09;;;9.78;42.88
19596;BME280;9945;46.010;8.946;2023-04-05T01:09:08;97305.38;;;9.71;43.63
19596;BME280;9945;46.010;8.946;2023-04-05T01:11:41;97315.84;;;9.81;43.27
19596;BME280;9945;46.010;8.946;2023-04-05T01:14:10;97310.31;;;9.94;42.69
19596;BME280;9945;46.010;8.946;2023-04-05T01:16:37;97310.91;;;9.78;43.77
19596;BME280;9945;46.010;8.946;2023-04-05T01:19:04;97314.50;;;9.67;43.32
19596;BME280;9945;46.010;8.946;2023-04-05T01:24:52;97310.38;;;9.55;43.93
19596;BME280;9945;46.010;8.946;2023-04-05T01:27:43;97310.22;;;9.57;44.56
19596;BME280;9945;46.010;8.946;2023-04-05T01:30:20;97309.53;;;9.64;44.54
19596;BME280;9945;46.010;8.946;2023-04-05T01:32:56;97316.72;;;9.53;45.30
19596;BME280;9945;46.010;8.946;2023-04-05T01:35:31;97318.47;;;9.62;43.72
19596;BME280;9945;46.010;8.946;2023-04-05T01:38:04;97317.25;;;9.66;43.46
19596;BME280;9945;46.010;8.946;2023-04-05T01:40:35;97313.81;;;9.56;43.77
19596;BME280;9945;46.010;8.946;2023-04-05T01:43:12;97314.94;;;9.34;43.51
19596;BME280;9945;46.010;8.946;2023-04-05T01:45:40;97319.88;;;9.18;45.08
19596;BME280;9945;46.010;8.946;2023-04-05T01:48:07;97318.50;;;9.23;45.23
19596;BME280;9945;46.010;8.946;2023-04-05T01:50:34;97320.56;;;9.10;44.14
19596;BME280;9945;46.010;8.946;2023-04-05T01:53:01;97320.97;;;9.15;43.32
19596;BME280;9945;46.010;8.946;2023-04-05T01:55:28;97329.34;;;9.19;44.59
19596;BME280;9945;46.010;8.946;2023-04-05T01:57:56;97323.56;;;9.05;44.42
19596;BME280;9945;46.010;8.946;2023-04-05T02:00:23;97326.59;;;9.10;45.15
19596;BME280;9945;46.010;8.946;2023-04-05T02:02:53;97330.84;;;9.11;45.05
19596;BME280;9945;46.010;8.946;2023-04-05T02:05:20;97322.47;;;9.08;45.17
19596;BME280;9945;46.010;8.946;2023-04-05T02:07:47;97328.53;;;9.08;45.19
19596;BME280;9945;46.010;8.946;2023-04-05T02:10:14;97326.44;;;9.02;44.80
19596;BME280;9945;46.010;8.946;2023-04-05T02:12:41;97322.88;;;9.03;43.06
19596;BME280;9945;46.010;8.946;2023-04-05T02:15:09;97319.44;;;9.13;43.16
19596;BME280;9945;46.010;8.946;2023-04-05T02:17:36;97313.41;;;9.12;42.50
19596;BME280;9945;46.010;8.946;2023-04-05T02:20:07;97315.31;;;9.20;42.85
19596;BME280;9945;46.010;8.946;2023-04-05T02:22:35;97323.84;;;9.12;42.82
19596;BME280;9945;46.010;8.946;2023-04-05T02:25:02;97317.94;;;9.00;43.13
19596;BME280;9945;46.010;8.946;2023-04-05T02:27:29;97320.09;;;8.86;44.40
19596;BME280;9945;46.010;8.946;2023-04-05T02:29:56;97322.84;;;8.75;43.79
19596;BME280;9945;46.010;8.946;2023-04-05T02:32:23;97317.63;;;8.75;44.52
19596;BME280;9945;46.010;8.946;2023-04-05T02:34:50;97319.28;;;8.95;44.32
19596;BME280;9945;46.010;8.946;2023-04-05T02:37:19;97320.94;;;8.96;44.71
19596;BME280;9945;46.010;8.946;2023-04-05T02:39:46;97323.50;;;8.77;45.11
19596;BME280;9945;46.010;8.946;2023-04-05T02:42:13;97319.13;;;8.67;44.89
19596;BME280;9945;46.010;8.946;2023-04-05T02:44:40;97320.44;;;8.62;44.63
19596;BME280;9945;46.010;8.946;2023-04-05T02:47:07;97317.13;;;8.60;44.01
19596;BME280;9945;46.010;8.946;2023-04-05T02:49:34;97318.41;;;8.65;44.97
19596;BME280;9945;46.010;8.946;2023-04-05T02:52:01;97316.09;;;8.72;45.29
19596;BME280;9945;46.010;8.946;2023-04-05T02:54:29;97314.25;;;8.53;44.42
19596;BME280;9945;46.010;8.946;2023-04-05T02:56:56;97310.09;;;8.51;44.32
19596;BME280;9945;46.010;8.946;2023-04-05T02:59:26;97314.00;;;8.56;45.49
19596;BME280;9945;46.010;8.946;2023-04-05T03:01:53;97316.44;;;8.48;44.21
19596;BME280;9945;46.010;8.946;2023-04-05T03:04:20;97323.69;;;8.45;44.33
19596;BME280;9945;46.010;8.946;2023-04-05T03:06:51;97323.97;;;8.51;43.82
19596;BME280;9945;46.010;8.946;2023-04-05T03:09:19;97322.47;;;8.49;43.97
19596;BME280;9945;46.010;8.946;2023-04-05T03:11:48;97316.13;;;8.82;43.16
19596;BME280;9945;46.010;8.946;2023-04-05T03:14:15;97318.63;;;8.93;42.64
19596;BME280;9945;46.010;8.946;2023-04-05T03:16:41;97318.78;;;8.61;44.48
19596;BME280;9945;46.010;8.946;2023-04-05T03:19:08;97320.34;;;8.73;44.59
19596;BME280;9945;46.010;8.946;2023-04-05T03:21:35;97327.75;;;8.68;44.46
19596;BME280;9945;46.010;8.946;2023-04-05T03:24:04;97327.06;;;8.66;43.69
19596;BME280;9945;46.010;8.946;2023-04-05T03:26:31;97326.47;;;8.53;44.12
19596;BME280;9945;46.010;8.946;2023-04-05T03:29:00;97325.72;;;8.31;45.78
19596;BME280;9945;46.010;8.946;2023-04-05T03:31:27;97325.94;;;8.28;45.28
19596;BME280;9945;46.010;8.946;2023-04-05T03:33:55;97329.03;;;8.43;44.75
19596;BME280;9945;46.010;8.946;2023-04-05T03:36:21;97325.22;;;8.26;45.73
19596;BME280;9945;46.010;8.946;2023-04-05T03:38:48;97320.53;;;8.51;46.02
19596;BME280;9945;46.010;8.946;2023-04-05T03:41:16;97323.56;;;8.46;45.01
19596;BME280;9945;46.010;8.946;2023-04-05T03:43:43;97316.44;;;8.27;46.17
19596;BME280;9945;46.010;8.946;2023-04-05T03:46:11;97325.59;;;8.33;45.84
19596;BME280;9945;46.010;8.946;2023-04-05T03:48:38;97321.03;;;8.35;46.34
19596;BME280;9945;46.010;8.946;2023-04-05T03:51:04;97318.09;;;8.28;45.58
19596;BME280;9945;46.010;8.946;2023-04-05T03:53:32;97314.84;;;8.06;45.56
19596;BME280;9945;46.010;8.946;2023-04-05T03:55:59;97310.59;;;8.35;46.17
19596;BME280;9945;46.010;8.946;2023-04-05T03:58:26;97309.44;;;8.49;44.91
19596;BME280;9945;46.010;8.946;2023-04-05T04:00:53;97320.44;;;8.62;43.68
19596;BME280;9945;46.010;8.946;2023-04-05T04:03:22;97312.88;;;8.49;44.26
19596;BME280;9945;46.010;8.946;2023-04-05T04:05:50;97312.88;;;8.28;44.69
19596;BME280;9945;46.010;8.946;2023-04-05T04:08:17;97311.59;;;8.44;45.32
19596;BME280;9945;46.010;8.946;2023-04-05T04:10:44;97311.38;;;8.56;44.35
19596;BME280;9945;46.010;8.946;2023-04-05T04:13:11;97309.31;;;8.50;43.56
19596;BME280;9945;46.010;8.946;2023-04-05T04:15:38;97313.09;;;8.37;43.81
19596;BME280;9945;46.010;8.946;2023-04-05T04:18:05;97315.44;;;8.40;44.84
19596;BME280;9945;46.010;8.946;2023-04-05T04:20:33;97312.72;;;8.41;44.20
19596;BME280;9945;46.010;8.946;2023-04-05T04:23:00;97317.78;;;8.43;45.09
19596;BME280;9945;46.010;8.946;2023-04-05T04:25:27;97310.22;;;8.40;43.78
19596;BME280;9945;46.010;8.946;2023-04-05T04:27:55;97308.81;;;8.35;44.27
19596;BME280;9945;46.010;8.946;2023-04-05T04:30:23;97312.16;;;8.17;45.98
19596;BME280;9945;46.010;8.946;2023-04-05T04:32:50;97315.09;;;8.23;46.18
19596;BME280;9945;46.010;8.946;2023-04-05T04:35:20;97306.44;;;8.23;44.91
19596;BME280;9945;46.010;8.946;2023-04-05T04:37:54;97314.28;;;8.02;45.95
19596;BME280;9945;46.010;8.946;2023-04-05T04:40:22;97308.22;;;8.22;44.89
19596;BME280;9945;46.010;8.946;2023-04-05T04:42:50;97304.66;;;8.23;45.42
19596;BME280;9945;46.010;8.946;2023-04-05T04:45:18;97301.13;;;8.34;45.15
19596;BME280;9945;46.010;8.946;2023-04-05T04:47:46;97302.72;;;8.25;45.84
19596;BME280;9945;46.010;8.946;2023-04-05T04:50:15;97308.63;;;8.27;45.71
19596;BME280;9945;46.010;8.946;2023-04-05T04:52:44;97305.56;;;8.33;45.33
19596;BME280;9945;46.010;8.946;2023-04-05T04:55:13;97299.66;;;8.51;44.50
19596;BME280;9945;46.010;8.946;2023-04-05T04:57:40;97300.09;;;8.46;45.43
19596;BME280;9945;46.010;8.946;2023-04-05T05:00:08;97303.91;;;8.42;45.52
19596;BME280;9945;46.010;8.946;2023-04-05T05:02:40;97298.75;;;8.61;44.29
19596;BME280;9945;46.010;8.946;2023-04-05T05:05:09;97304.13;;;8.69;43.81
19596;BME280;9945;46.010;8.946;2023-04-05T05:07:36;97303.16;;;8.70;44.06
19596;BME280;9945;46.010;8.946;2023-04-05T05:10:05;97307.16;;;8.65;43.90
19596;BME280;9945;46.010;8.946;2023-04-05T05:12:34;97303.41;;;8.48;44.48
19596;BME280;9945;46.010;8.946;2023-04-05T05:15:01;97309.41;;;8.39;45.15
19596;BME280;9945;46.010;8.946;2023-04-05T05:17:28;97302.16;;;8.52;43.48
19596;BME280;9945;46.010;8.946;2023-04-05T05:19:56;97317.09;;;8.41;44.54
19596;BME280;9945;46.010;8.946;2023-04-05T05:22:24;97308.09;;;8.64;44.38
19596;BME280;9945;46.010;8.946;2023-04-05T05:24:51;97312.09;;;8.58;43.95
19596;BME280;9945;46.010;8.946;2023-04-05T05:27:18;97305.06;;;8.68;43.49
19596;BME280;9945;46.010;8.946;2023-04-05T05:29:47;97318.25;;;8.57;44.55
19596;BME280;9945;46.010;8.946;2023-04-05T05:32:14;97319.03;;;8.48;45.02
19596;BME280;9945;46.010;8.946;2023-04-05T05:34:41;97323.53;;;8.37;46.20
19596;BME280;9945;46.010;8.946;2023-04-05T05:37:09;97321.78;;;8.47;45.03
19596;BME280;9945;46.010;8.946;2023-04-05T05:39:37;97328.91;;;8.45;44.31
19596;BME280;9945;46.010;8.946;2023-04-05T05:42:04;97330.81;;;8.43;44.69
19596;BME280;9945;46.010;8.946;2023-04-05T05:44:31;97330.53;;;8.36;44.11
19596;BME280;9945;46.010;8.946;2023-04-05T05:46:59;97327.22;;;8.34;44.44
19596;BME280;9945;46.010;8.946;2023-04-05T05:49:27;97325.88;;;8.40;45.47
19596;BME280;9945;46.010;8.946;2023-04-05T05:51:53;97327.41;;;8.52;45.38
19596;BME280;9945;46.010;8.946;2023-04-05T05:54:21;97325.66;;;8.62;43.56
19596;BME280;9945;46.010;8.946;2023-04-05T05:56:48;97327.56;;;8.60;43.71
19596;BME280;9945;46.010;8.946;2023-04-05T05:59:15;97325.28;;;8.66;44.91
19596;BME280;9945;46.010;8.946;2023-04-05T06:01:41;97327.38;;;8.82;43.71
19596;BME280;9945;46.010;8.946;2023-04-05T06:04:12;97341.56;;;8.99;43.99
19596;BME280;9945;46.010;8.946;2023-04-05T06:06:39;97334.03;;;9.15;44.34
19596;BME280;9945;46.010;8.946;2023-04-05T06:09:07;97338.31;;;9.26;42.79
19596;BME280;9945;46.010;8.946;2023-04-05T06:11:34;97335.13;;;9.32;43.42
19596;BME280;9945;46.010;8.946;2023-04-05T06:14:01;97336.63;;;9.63;42.79
19596;BME280;9945;46.010;8.946;2023-04-05T06:16:28;97340.44;;;9.88;43.15
19596;BME280;9945;46.010;8.946;2023-04-05T06:18:56;97342.75;;;10.10;42.38
19596;BME280;9945;46.010;8.946;2023-04-05T06:21:24;97339.13;;;10.31;43.04
19596;BME280;9945;46.010;8.946;2023-04-05T06:23:52;97341.47;;;10.34;42.57
19596;BME280;9945;46.010;8.946;2023-04-05T06:26:20;97343.34;;;10.51;41.51
19596;BME280;9945;46.010;8.946;2023-04-05T06:28:48;97346.06;;;10.59;41.86
19596;BME280;9945;46.010;8.946;2023-04-05T06:31:16;97336.66;;;10.66;41.69
19596;BME280;9945;46.010;8.946;2023-04-05T06:33:43;97335.34;;;10.80;41.47
19596;BME280;9945;46.010;8.946;2023-04-05T06:36:10;97342.16;;;10.90;41.68
19596;BME280;9945;46.010;8.946;2023-04-05T06:38:38;97343.91;;;10.99;40.61
19596;BME280;9945;46.010;8.946;2023-04-05T06:41:05;97338.91;;;11.24;40.63
19596;BME280;9945;46.010;8.946;2023-04-05T06:43:32;97341.69;;;11.40;40.11
19596;BME280;9945;46.010;8.946;2023-04-05T06:45:59;97332.03;;;11.58;39.89
19596;BME280;9945;46.010;8.946;2023-04-05T06:48:26;97342.75;;;11.83;38.92
19596;BME280;9945;46.010;8.946;2023-04-05T06:50:57;97339.06;;;11.93;38.51
19596;BME280;9945;46.010;8.946;2023-04-05T06:53:24;97335.72;;;12.09;38.46
19596;BME280;9945;46.010;8.946;2023-04-05T06:55:53;97328.56;;;12.19;38.81
19596;BME280;9945;46.010;8.946;2023-04-05T06:58:20;97333.88;;;12.61;38.07
19596;BME280;9945;46.010;8.946;2023-04-05T07:00:48;97329.53;;;12.86;37.52
19596;BME280;9945;46.010;8.946;2023-04-05T07:03:15;97334.38;;;13.07;38.95
19596;BME280;9945;46.010;8.946;2023-04-05T07:05:49;97328.53;;;13.29;39.07
19596;BME280;9945;46.010;8.946;2023-04-05T07:08:17;97323.63;;;13.34;35.92
19596;BME280;9945;46.010;8.946;2023-04-05T07:10:44;97332.50;;;13.66;37.65
19596;BME280;9945;46.010;8.946;2023-04-05T07:13:12;97326.09;;;13.76;37.52
19596;BME280;9945;46.010;8.946;2023-04-05T07:15:40;97321.81;;;13.83;37.01
19596;BME280;9945;46.010;8.946;2023-04-05T07:18:07;97325.91;;;13.61;37.42
19596;BME280;9945;46.010;8.946;2023-04-05T07:20:33;97320.78;;;13.36;39.16
19596;BME280;9945;46.010;8.946;2023-04-05T07:23:00;97319.50;;;13.40;39.05
19596;BME280;9945;46.010;8.946;2023-04-05T07:25:27;97328.88;;;13.50;37.65
19596;BME280;9945;46.010;8.946;2023-04-05T07:27:54;97324.63;;;13.66;38.32
19596;BME280;9945;46.010;8.946;2023-04-05T07:30:24;97322.31;;;13.71;36.95
19596;BME280;9945;46.010;8.946;2023-04-05T07:32:50;97331.16;;;13.37;36.67
19596;BME280;9945;46.010;8.946;2023-04-05T07:35:17;97322.78;;;13.34;38.07
19596;BME280;9945;46.010;8.946;2023-04-05T07:37:44;97323.47;;;13.52;36.73
19596;BME280;9945;46.010;8.946;2023-04-05T07:40:12;97330.19;;;13.62;36.96
19596;BME280;9945;46.010;8.946;2023-04-05T07:42:38;97325.94;;;13.78;35.03
19596;BME280;9945;46.010;8.946;2023-04-05T07:45:06;97326.41;;;13.81;36.28
19596;BME280;9945;46.010;8.946;2023-04-05T07:47:35;97316.56;;;13.59;35.25
19596;BME280;9945;46.010;8.946;2023-04-05T07:50:02;97321.31;;;13.80;35.39
19596;BME280;9945;46.010;8.946;2023-04-05T07:52:29;97321.50;;;13.86;36.32
19596;BME280;9945;46.010;8.946;2023-04-05T07:54:55;97320.31;;;13.89;36.50
19596;BME280;9945;46.010;8.946;2023-04-05T07:57:22;97324.94;;;14.03;36.99
19596;BME280;9945;46.010;8.946;2023-04-05T07:59:49;97313.75;;;13.85;34.73
19596;BME280;9945;46.010;8.946;2023-04-05T08:02:17;97321.31;;;13.80;32.50
19596;BME280;9945;46.010;8.946;2023-04-05T08:04:45;97317.53;;;13.82;32.15
19596;BME280;9945;46.010;8.946;2023-04-05T08:07:12;97317.69;;;13.73;31.93
19596;BME280;9945;46.010;8.946;2023-04-05T08:09:39;97313.38;;;14.04;30.41
19596;BME280;9945;46.010;8.946;2023-04-05T08:12:06;97312.41;;;13.97;30.77
19596;BME280;9945;46.010;8.946;2023-04-05T08:14:35;97309.72;;;14.21;30.38
19596;BME280;9945;46.010;8.946;2023-04-05T08:17:02;97313.38;;;14.12;29.79
19596;BME280;9945;46.010;8.946;2023-04-05T08:19:29;97310.44;;;14.07;31.84
19596;BME280;9945;46.010;8.946;2023-04-05T08:21:57;97315.19;;;14.03;30.36
19596;BME280;9945;46.010;8.946;2023-04-05T08:24:24;97320.97;;;13.99;29.82
19596;BME280;9945;46.010;8.946;2023-04-05T08:26:51;97309.72;;;14.21;29.81
19596;BME280;9945;46.010;8.946;2023-04-05T08:29:18;97312.81;;;14.49;29.60
19596;BME280;9945;46.010;8.946;2023-04-05T08:31:45;97314.88;;;14.07;29.98
19596;BME280;9945;46.010;8.946;2023-04-05T08:34:12;97303.00;;;14.19;28.54
19596;BME280;9945;46.010;8.946;2023-04-05T08:36:38;97302.84;;;14.12;29.31
19596;BME280;9945;46.010;8.946;2023-04-05T08:39:07;97306.72;;;14.49;31.91
19596;BME280;9945;46.010;8.946;2023-04-05T08:41:36;97300.78;;;14.55;30.21
19596;BME280;9945;46.010;8.946;2023-04-05T08:44:08;97316.63;;;14.30;28.70
19596;BME280;9945;46.010;8.946;2023-04-05T08:46:36;97302.59;;;14.62;29.26
19596;BME280;9945;46.010;8.946;2023-04-05T08:49:04;97305.47;;;15.06;28.51
19596;BME280;9945;46.010;8.946;2023-04-05T08:51:32;97309.38;;;15.41;28.27
19596;BME280;9945;46.010;8.946;2023-04-05T08:53:59;97305.41;;;15.68;27.46
19596;BME280;9945;46.010;8.946;2023-04-05T08:56:31;97307.22;;;15.91;27.69
19596;BME280;9945;46.010;8.946;2023-04-05T08:59:01;97307.72;;;15.71;27.52
19596;BME280;9945;46.010;8.946;2023-04-05T09:01:30;97306.13;;;16.00;27.75
19596;BME280;9945;46.010;8.946;2023-04-05T09:03:59;97301.97;;;16.35;26.34
19596;BME280;9945;46.010;8.946;2023-04-05T09:06:27;97301.22;;;16.85;26.98
19596;BME280;9945;46.010;8.946;2023-04-05T09:08:55;97305.44;;;17.94;25.69
19596;BME280;9945;46.010;8.946;2023-04-05T09:11:23;97302.72;;;18.77;24.40
19596;BME280;9945;46.010;8.946;2023-04-05T09:13:52;97305.88;;;19.94;22.92
19596;BME280;9945;46.010;8.946;2023-04-05T09:16:19;97308.28;;;19.50;22.25
19596;BME280;9945;46.010;8.946;2023-04-05T09:18:46;97301.19;;;19.96;22.62
19596;BME280;9945;46.010;8.946;2023-04-05T09:21:14;97293.38;;;21.05;21.54
19596;BME280;9945;46.010;8.946;2023-04-05T09:23:50;97291.84;;;21.29;20.63
19596;BME280;9945;46.010;8.946;2023-04-05T09:26:19;97294.00;;;20.17;21.22
19596;BME280;9945;46.010;8.946;2023-04-05T09:28:46;97289.31;;;20.38;21.61
19596;BME280;9945;46.010;8.946;2023-04-05T09:31:32;97288.72;;;21.39;20.85
19596;BME280;9945;46.010;8.946;2023-04-05T09:34:01;97281.41;;;20.83;21.39
19596;BME280;9945;46.010;8.946;2023-04-05T09:36:28;97281.69;;;21.06;21.10
19596;BME280;9945;46.010;8.946;2023-04-05T09:39:04;97278.66;;;22.22;19.48
19596;BME280;9945;46.010;8.946;2023-04-05T09:41:32;97287.69;;;21.96;19.92
19596;BME280;9945;46.010;8.946;2023-04-05T09:44:00;97280.25;;;22.05;20.05
19596;BME280;9945;46.010;8.946;2023-04-05T09:46:32;97276.69;;;23.09;19.65
19596;BME280;9945;46.010;8.946;2023-04-05T09:49:02;97274.84;;;22.54;19.19
19596;BME280;9945;46.010;8.946;2023-04-05T09:51:32;97277.25;;;22.62;18.90
19596;BME280;9945;46.010;8.946;2023-04-05T09:54:01;97261.16;;;22.87;19.36
19596;BME280;9945;46.010;8.946;2023-04-05T09:56:30;97265.59;;;23.23;18.32
19596;BME280;9945;46.010;8.946;2023-04-05T09:58:58;97268.25;;;23.23;18.62
19596;BME280;9945;46.010;8.946;2023-04-05T10:01:27;97259.78;;;23.98;18.51
19596;BME280;9945;46.010;8.946;2023-04-05T10:03:56;97262.91;;;24.06;18.40
19596;BME280;9945;46.010;8.946;2023-04-05T10:06:23;97251.28;;;24.36;18.12
19596;BME280;9945;46.010;8.946;2023-04-05T10:09:00;97256.47;;;23.84;17.90
19596;BME280;9945;46.010;8.946;2023-04-05T10:11:28;97254.16;;;23.99;17.75
19596;BME280;9945;46.010;8.946;2023-04-05T10:13:55;97259.50;;;23.64;18.37
19596;BME280;9945;46.010;8.946;2023-04-05T10:16:25;97249.72;;;23.28;19.01
19596;BME280;9945;46.010;8.946;2023-04-05T10:18:55;97258.41;;;23.54;19.08
19596;BME280;9945;46.010;8.946;2023-04-05T10:21:26;97251.38;;;23.94;18.12
19596;BME280;9945;46.010;8.946;2023-04-05T10:24:00;97250.34;;;24.19;17.65
19596;BME280;9945;46.010;8.946;2023-04-05T10:26:37;97247.78;;;24.12;17.75
19596;BME280;9945;46.010;8.946;2023-04-05T10:29:08;97249.13;;;25.41;17.79
19596;BME280;9945;46.010;8.946;2023-04-05T10:31:44;97243.75;;;25.86;17.26
19596;BME280;9945;46.010;8.946;2023-04-05T10:34:23;97244.94;;;25.17;17.15
19596;BME280;9945;46.010;8.946;2023-04-05T10:36:57;97242.03;;;25.35;17.09
19596;BME280;9945;46.010;8.946;2023-04-05T10:39:27;97233.09;;;24.61;17.06
19596;BME280;9945;46.010;8.946;2023-04-05T10:41:59;97231.03;;;23.93;17.41
19596;BME280;9945;46.010;8.946;2023-04-05T10:44:29;97233.00;;;24.09;17.25
19596;BME280;9945;46.010;8.946;2023-04-05T10:46:57;97233.91;;;23.92;18.02
19596;BME280;9945;46.010;8.946;2023-04-05T10:49:31;97224.78;;;24.23;17.83
19596;BME280;9945;46.010;8.946;2023-04-05T10:51:59;97226.50;;;24.40;17.72
19596;BME280;9945;46.010;8.946;2023-04-05T10:54:28;97233.44;;;23.83;18.76
19596;BME280;9945;46.010;8.946;2023-04-05T10:56:58;97224.66;;;24.41;17.77
19596;BME280;9945;46.010;8.946;2023-04-05T10:59:27;97224.81;;;25.03;17.32
19596;BME280;9945;46.010;8.946;2023-04-05T11:01:55;97218.09;;;25.45;16.18
19596;BME280;9945;46.010;8.946;2023-04-05T11:04:23;97222.41;;;25.18;17.33
19596;BME280;9945;46.010;8.946;2023-04-05T11:07:12;97213.94;;;25.54;17.82
19596;BME280;9945;46.010;8.946;2023-04-05T11:09:50;97213.28;;;26.31;17.38
19596;BME280;9945;46.010;8.946;2023-04-05T11:12:17;97209.19;;;27.10;15.74
19596;BME280;9945;46.010;8.946;2023-04-05T11:14:44;97203.81;;;26.67;16.42
19596;BME280;9945;46.010;8.946;2023-04-05T11:17:28;97210.00;;;27.38;15.51
19596;BME280;9945;46.010;8.946;2023-04-05T11:20:02;97208.53;;;28.21;15.62
19596;BME280;9945;46.010;8.946;2023-04-05T11:22:31;97204.97;;;28.57;15.07
19596;BME280;9945;46.010;8.946;2023-04-05T11:24:59;97191.91;;;28.96;15.19
19596;BME280;9945;46.010;8.946;2023-04-05T11:27:28;97204.34;;;29.08;14.76
19596;BME280;9945;46.010;8.946;2023-04-05T11:29:56;97197.34;;;29.27;13.90
19596;BME280;9945;46.010;8.946;2023-04-05T11:32:23;97191.31;;;28.79;14.72
19596;BME280;9945;46.010;8.946;2023-04-05T11:35:05;97187.94;;;28.47;15.07
19596;BME280;9945;46.010;8.946;2023-04-05T11:38:04;97186.09;;;28.68;14.56
19596;BME280;9945;46.010;8.946;2023-04-05T11:40:33;97184.25;;;28.16;14.80
19596;BME280;9945;46.010;8.946;2023-04-05T11:43:02;97187.28;;;28.87;15.02
19596;BME280;9945;46.010;8.946;2023-04-05T11:45:30;97190.06;;;28.45;14.64
19596;BME280;9945;46.010;8.946;2023-04-05T11:47:59;97186.06;;;27.41;15.65
19596;BME280;9945;46.010;8.946;2023-04-05T11:50:27;97182.53;;;27.63;15.32
19596;BME280;9945;46.010;8.946;2023-04-05T11:53:09;97191.66;;;27.62;15.56
19596;BME280;9945;46.010;8.946;2023-04-05T11:55:36;97182.50;;;28.00;15.37
19596;BME280;9945;46.010;8.946;2023-04-05T11:58:10;97176.56;;;29.12;13.68
19596;BME280;9945;46.010;8.946;2023-04-05T12:00:37;97172.84;;;29.99;13.60
19596;BME280;9945;46.010;8.946;2023-04-05T12:03:04;97161.31;;;30.63;13.21
19596;BME280;9945;46.010;8.946;2023-04-05T12:05:44;97173.47;;;31.20;13.56
19596;BME280;9945;46.010;8.946;2023-04-05T12:08:12;97160.44;;;32.43;13.14
19596;BME280;9945;46.010;8.946;2023-04-05T12:10:39;97157.25;;;33.21;12.60
19596;BME280;9945;46.010;8.946;2023-04-05T12:13:06;97172.19;;;32.38;12.70
19596;BME280;9945;46.010;8.946;2023-04-05T12:15:36;97161.13;;;32.77;12.42
19596;BME280;9945;46.010;8.946;2023-04-05T12:18:09;97160.16;;;32.44;12.14
19596;BME280;9945;46.010;8.946;2023-04-05T12:20:38;97163.03;;;32.53;12.67
19596;BME280;9945;46.010;8.946;2023-04-05T12:23:05;97162.13;;;33.05;12.27
19596;BME280;9945;46.010;8.946;2023-04-05T12:25:33;97164.22;;;31.60;12.94
19596;BME280;9945;46.010;8.946;2023-04-05T12:28:04;97148.22;;;30.86;13.66
19596;BME280;9945;46.010;8.946;2023-04-05T12:30:33;97148.00;;;29.72;13.68
19596;BME280;9945;46.010;8.946;2023-04-05T12:33:06;97144.22;;;30.73;13.88
19596;BME280;9945;46.010;8.946;2023-04-05T12:35:34;97144.22;;;30.78;13.88
19596;BME280;9945;46.010;8.946;2023-04-05T12:38:02;97127.03;;;30.98;13.42
19596;BME280;9945;46.010;8.946;2023-04-05T12:40:30;97136.00;;;30.34;13.54
19596;BME280;9945;46.010;8.946;2023-04-05T12:43:03;97126.09;;;30.09;13.47
19596;BME280;9945;46.010;8.946;2023-04-05T12:45:31;97125.94;;;30.99;13.54
19596;BME280;9945;46.010;8.946;2023-04-05T12:48:07;97124.19;;;30.79;13.67
19596;BME280;9945;46.010;8.946;2023-04-05T12:50:35;97123.53;;;30.38;13.37
19596;BME280;9945;46.010;8.946;2023-04-05T12:53:05;97116.13;;;29.84;13.78
19596;BME280;9945;46.010;8.946;2023-04-05T12:55:41;97115.44;;;28.50;15.46
19596;BME280;9945;46.010;8.946;2023-04-05T12:58:09;97112.56;;;25.68;16.91
19596;BME280;9945;46.010;8.946;2023-04-05T13:00:37;97105.47;;;24.67;17.63
19596;BME280;9945;46.010;8.946;2023-04-05T13:03:04;97110.63;;;24.05;18.38
19596;BME280;9945;46.010;8.946;2023-04-05T13:05:31;97108.69;;;22.59;20.14
19596;BME280;9945;46.010;8.946;2023-04-05T13:07:58;97099.03;;;21.92;19.55
19596;BME280;9945;46.010;8.946;2023-04-05T13:10:25;97096.13;;;21.57;21.73
19596;BME280;9945;46.010;8.946;2023-04-05T13:12:52;97095.03;;;21.14;20.40
19596;BME280;9945;46.010;8.946;2023-04-05T13:15:20;97085.94;;;20.28;22.85
19596;BME280;9945;46.010;8.946;2023-04-05T13:17:47;97096.06;;;19.99;23.86
19596;BME280;9945;46.010;8.946;2023-04-05T13:20:16;97087.38;;;19.79;22.53
19596;BME280;9945;46.010;8.946;2023-04-05T13:22:43;97081.25;;;19.72;22.90
19596;BME280;9945;46.010;8.946;2023-04-05T13:25:10;97073.84;;;19.87;22.46
19596;BME280;9945;46.010;8.946;2023-04-05T13:27:38;97073.94;;;19.54;22.41